Time;durP1;ratioP1;P1;durP2;ratioP2;P2;SDS_P1;SDS_P2;PMS_P1;PMS_P2;Temp;Humidity;BMP_temperature;BMP_pressure;BME280_temperature;BME280_humidity;BME280_pressure;Samples;Min_cycle;Max_cycle;Signal;HPM_P1;HPM_P2
2021/12/05 00:18:30;;;;;;;;;3.00;0.00;;;;;;;;5029344;28;50104;-73
2021/12/05 00:21:37;;;;;;;;;0.75;0.75;;;;;;;;5029153;28;49996;-73
2021/12/05 00:24:01;;;;;;;;;4.00;1.00;;;;;;;;5042216;28;49606;-73
2021/12/05 00:26:28;;;;;;;;;0.75;0.00;;;;;;;;5049810;28;49724;-73
2021/12/05 00:29:43;;;;;;;;;0.50;0.00;;;;;;;;5049792;28;50626;-73
2021/12/05 00:45:15;;;;;;;;;0.00;0.00;;;;;;;;5049952;28;49774;-74
2021/12/05 01:06:29;;;;;;;;;2.00;1.00;;;;;;;;5049125;28;49708;-74
2021/12/05 01:16:21;;;;;;;;;0.00;0.00;;;;;;;;5049260;28;49754;-74
2021/12/05 01:18:46;;;;;;;;;3.50;1.00;;;;;;;;5050317;28;49665;-74
2021/12/05 01:21:14;;;;;;;;;1.00;1.00;;;;;;;;5048756;28;50921;-73
2021/12/05 01:26:27;;;;;;;;;0.00;0.00;;;;;;;;5049161;28;49916;-73
2021/12/05 01:31:44;;;;;;;;;0.00;0.00;;;;;;;;5048710;28;50431;-75
2021/12/05 01:34:29;;;;;;;;;2.00;0.00;;;;;;;;5048751;28;49744;-74
2021/12/05 01:37:13;;;;;;;;;0.25;0.00;;;;;;;;5050355;28;49727;-74
2021/12/05 02:42:29;;;;;;;;;0.00;0.00;;;;;;;;5047943;28;49728;-74
2021/12/05 02:44:54;;;;;;;;;0.00;0.00;;;;;;;;5048232;28;50821;-73
2021/12/05 02:47:21;;;;;;;;;0.00;0.00;;;;;;;;5047812;28;49757;-73
2021/12/05 02:49:47;;;;;;;;;1.00;0.00;;;;;;;;5047820;28;49724;-74
2021/12/05 02:52:22;;;;;;;;;1.00;0.00;;;;;;;;5049904;28;49700;-75
2021/12/05 02:54:51;;;;;;;;;0.00;0.00;;;;;;;;5049193;28;49853;-75
2021/12/05 02:57:24;;;;;;;;;0.00;0.00;;;;;;;;5046461;28;49754;-74
2021/12/05 02:59:54;;;;;;;;;0.75;0.75;;;;;;;;5029836;28;49613;-74
2021/12/05 03:02:26;;;;;;;;;0.00;0.00;;;;;;;;5047436;28;49944;-74
2021/12/05 03:04:53;;;;;;;;;0.00;0.00;;;;;;;;5048201;28;49902;-74
2021/12/05 03:07:25;;;;;;;;;0.00;0.00;;;;;;;;5047440;28;49994;-73
2021/12/05 03:09:51;;;;;;;;;0.00;0.00;;;;;;;;5047450;28;49715;-74
2021/12/05 03:12:18;;;;;;;;;1.50;0.50;;;;;;;;5047669;28;49855;-74
2021/12/05 03:14:47;;;;;;;;;0.00;0.00;;;;;;;;5047320;28;50400;-74
2021/12/05 03:17:13;;;;;;;;;0.00;0.00;;;;;;;;5030348;28;50165;-74
2021/12/05 03:19:38;;;;;;;;;0.25;0.00;;;;;;;;5047066;28;50034;-75
2021/12/05 03:22:04;;;;;;;;;0.00;0.00;;;;;;;;5047424;28;49973;-74
2021/12/05 03:24:29;;;;;;;;;0.25;0.25;;;;;;;;5047202;28;49666;-75
2021/12/05 03:26:55;;;;;;;;;0.25;0.00;;;;;;;;5047650;28;49744;-74
2021/12/05 03:29:21;;;;;;;;;0.25;0.25;;;;;;;;5048559;28;49886;-75
2021/12/05 03:31:47;;;;;;;;;0.00;0.00;;;;;;;;5047297;28;49604;-75
2021/12/05 03:34:13;;;;;;;;;0.00;0.00;;;;;;;;5047317;28;50261;-75
2021/12/05 03:36:40;;;;;;;;;0.25;0.00;;;;;;;;5046811;28;49682;-75
2021/12/05 03:39:06;;;;;;;;;0.00;0.00;;;;;;;;5046985;28;49764;-75
2021/12/05 03:41:32;;;;;;;;;0.00;0.00;;;;;;;;5047208;28;49732;-75
2021/12/05 03:43:58;;;;;;;;;0.75;0.75;;;;;;;;5047019;28;50773;-75
2021/12/05 03:46:24;;;;;;;;;0.00;0.00;;;;;;;;5046836;28;49771;-74
2021/12/05 03:48:52;;;;;;;;;0.00;0.00;;;;;;;;5046765;28;49598;-74
2021/12/05 03:51:18;;;;;;;;;0.00;0.00;;;;;;;;5047034;28;49647;-74
2021/12/05 03:53:44;;;;;;;;;1.00;0.00;;;;;;;;5046766;28;50355;-74
2021/12/05 03:56:09;;;;;;;;;1.00;1.00;;;;;;;;5046828;28;50155;-75
2021/12/05 03:58:35;;;;;;;;;0.00;0.00;;;;;;;;5047280;28;51297;-75
2021/12/05 04:01:01;;;;;;;;;0.00;0.00;;;;;;;;5049746;28;49991;-75
2021/12/05 04:03:27;;;;;;;;;0.00;0.00;;;;;;;;5047036;28;50425;-75
2021/12/05 04:05:53;;;;;;;;;0.00;0.00;;;;;;;;5046312;28;49803;-74
2021/12/05 04:08:20;;;;;;;;;1.00;0.00;;;;;;;;5046921;28;49754;-75
2021/12/05 04:10:50;;;;;;;;;0.00;0.00;;;;;;;;5047884;28;49915;-74
2021/12/05 04:13:15;;;;;;;;;0.50;0.50;;;;;;;;5048325;28;50493;-74
2021/12/05 04:15:41;;;;;;;;;0.75;0.75;;;;;;;;5049786;28;49780;-75
2021/12/05 04:18:06;;;;;;;;;2.00;0.00;;;;;;;;5049760;28;50069;-74
2021/12/05 04:20:32;;;;;;;;;1.00;0.00;;;;;;;;5049456;28;49832;-74
2021/12/05 04:22:57;;;;;;;;;0.00;0.00;;;;;;;;5051569;28;50384;-73
2021/12/05 04:25:24;;;;;;;;;0.00;0.00;;;;;;;;5050656;28;49744;-74
2021/12/05 04:27:50;;;;;;;;;0.00;0.00;;;;;;;;5032111;28;49759;-74
2021/12/05 04:30:17;;;;;;;;;0.75;0.00;;;;;;;;5049633;28;49929;-73
2021/12/05 04:32:42;;;;;;;;;0.00;0.00;;;;;;;;5049173;28;50315;-74
2021/12/05 04:35:08;;;;;;;;;0.00;0.00;;;;;;;;5049351;28;49939;-74
2021/12/05 04:37:33;;;;;;;;;0.00;0.00;;;;;;;;5049942;28;49774;-74
2021/12/05 04:39:58;;;;;;;;;0.25;0.25;;;;;;;;5050349;28;49934;-75
2021/12/05 04:42:24;;;;;;;;;0.00;0.00;;;;;;;;5049018;28;49720;-74
2021/12/05 04:44:49;;;;;;;;;0.00;0.00;;;;;;;;5049845;28;49817;-73
2021/12/05 04:47:15;;;;;;;;;1.00;1.00;;;;;;;;5050121;28;49749;-74
2021/12/05 04:49:41;;;;;;;;;1.00;0.00;;;;;;;;5049575;28;49907;-75
2021/12/05 04:52:07;;;;;;;;;0.00;0.00;;;;;;;;5049373;28;50211;-75
2021/12/05 04:54:32;;;;;;;;;0.00;0.00;;;;;;;;5049251;28;49498;-76
2021/12/05 04:56:58;;;;;;;;;0.00;0.00;;;;;;;;5049503;28;49800;-74
2021/12/05 04:59:25;;;;;;;;;0.50;0.00;;;;;;;;5049315;28;49537;-76
2021/12/05 05:01:52;;;;;;;;;1.50;0.25;;;;;;;;5049068;28;50456;-74
2021/12/05 05:04:29;;;;;;;;;0.25;0.00;;;;;;;;5051377;28;49685;-74
2021/12/05 05:06:56;;;;;;;;;0.00;0.00;;;;;;;;5049569;28;49878;-75
2021/12/05 05:09:21;;;;;;;;;0.00;0.00;;;;;;;;5050083;28;49589;-75
2021/12/05 05:11:46;;;;;;;;;0.00;0.00;;;;;;;;5048960;28;49769;-75
2021/12/05 05:14:13;;;;;;;;;0.00;0.00;;;;;;;;5031525;28;49653;-75
2021/12/05 05:16:39;;;;;;;;;0.00;0.00;;;;;;;;5049308;28;49699;-74
2021/12/05 05:19:04;;;;;;;;;0.00;0.00;;;;;;;;5049418;28;49870;-74
2021/12/05 05:39:15;;;;;;;;;1.00;0.00;;;;;;;;5050507;28;50506;-75
2021/12/05 05:45:27;;;;;;;;;0.50;0.00;;;;;;;;5049421;28;49627;-74
2021/12/05 05:50:36;;;;;;;;;0.00;0.00;;;;;;;;5048597;28;49706;-75
2021/12/05 05:53:01;;;;;;;;;0.00;0.00;;;;;;;;5048518;28;50857;-75
2021/12/05 05:55:27;;;;;;;;;0.00;0.00;;;;;;;;5048529;28;49842;-74
2021/12/05 06:00:29;;;;;;;;;0.25;0.00;;;;;;;;5049092;28;49801;-75
2021/12/05 06:05:38;;;;;;;;;1.50;0.00;;;;;;;;5048048;28;49799;-74
2021/12/05 06:08:03;;;;;;;;;0.75;0.75;;;;;;;;5048333;28;49713;-73
2021/12/05 06:10:30;;;;;;;;;1.00;0.00;;;;;;;;5048348;28;49579;-74
2021/12/05 06:12:55;;;;;;;;;0.00;0.00;;;;;;;;5048706;28;49902;-75
2021/12/05 06:15:23;;;;;;;;;0.00;0.00;;;;;;;;5048680;28;49968;-76
2021/12/05 06:17:49;;;;;;;;;1.00;0.00;;;;;;;;5048551;28;49859;-75
2021/12/05 06:20:16;;;;;;;;;0.00;0.00;;;;;;;;5048523;28;50057;-76
2021/12/05 06:22:41;;;;;;;;;2.00;0.00;;;;;;;;5048198;28;49656;-75
2021/12/05 06:25:14;;;;;;;;;0.00;0.00;;;;;;;;5047866;28;49811;-75
2021/12/05 06:27:41;;;;;;;;;2.00;1.00;;;;;;;;5048268;28;49759;-75
2021/12/05 06:30:19;;;;;;;;;0.00;0.00;;;;;;;;5049359;28;50370;-76
2021/12/05 06:38:31;;;;;;;;;0.75;0.00;;;;;;;;5047981;28;49731;-76
2021/12/05 06:48:45;;;;;;;;;0.00;0.00;;;;;;;;5048291;28;49974;-75
2021/12/05 06:51:11;;;;;;;;;5.25;0.50;;;;;;;;5047492;28;49795;-76
2021/12/05 06:53:36;;;;;;;;;0.00;0.00;;;;;;;;5047719;28;50539;-76
2021/12/05 06:56:02;;;;;;;;;1.75;1.75;;;;;;;;5047780;28;49739;-75
2021/12/05 06:58:32;;;;;;;;;0.00;0.00;;;;;;;;5051534;28;49884;-74
2021/12/05 07:01:01;;;;;;;;;0.00;0.00;;;;;;;;5033204;28;49715;-76
2021/12/05 07:03:26;;;;;;;;;0.00;0.00;;;;;;;;5050639;28;51307;-74
2021/12/05 07:05:56;;;;;;;;;1.00;0.00;;;;;;;;5047473;28;49926;-76
2021/12/05 07:08:26;;;;;;;;;0.00;0.00;;;;;;;;5048176;28;49644;-76
2021/12/05 07:11:01;;;;;;;;;1.00;1.00;;;;;;;;5048621;28;49927;-76
2021/12/05 07:16:23;;;;;;;;;1.00;0.00;;;;;;;;5047537;28;49908;-74
2021/12/05 07:19:12;;;;;;;;;0.25;0.25;;;;;;;;5047577;28;49738;-74
2021/12/05 07:24:17;;;;;;;;;0.50;0.50;;;;;;;;5047177;28;49910;-76
2021/12/05 07:27:02;;;;;;;;;0.00;0.00;;;;;;;;5047552;28;49755;-75
2021/12/05 07:40:35;;;;;;;;;1.00;1.00;;;;;;;;5051063;28;49952;-76
2021/12/05 07:43:02;;;;;;;;;0.00;0.00;;;;;;;;5046983;28;50051;-77
2021/12/05 07:45:34;;;;;;;;;1.75;0.50;;;;;;;;5050693;28;51022;-76
2021/12/05 07:48:08;;;;;;;;;1.00;1.00;;;;;;;;5047690;28;49886;-74
2021/12/05 07:50:43;;;;;;;;;0.00;0.00;;;;;;;;5032041;28;49836;-76
2021/12/05 07:53:17;;;;;;;;;1.00;1.00;;;;;;;;5050393;28;49777;-77
2021/12/05 07:55:44;;;;;;;;;0.75;0.75;;;;;;;;5049971;28;50181;-74
2021/12/05 07:58:31;;;;;;;;;0.00;0.00;;;;;;;;5050141;28;49700;-75
2021/12/05 08:14:43;;;;;;;;;0.00;0.00;;;;;;;;5051504;28;49705;-77
2021/12/05 08:17:15;;;;;;;;;0.50;0.50;;;;;;;;5049616;28;50342;-75
2021/12/05 08:19:40;;;;;;;;;2.00;1.00;;;;;;;;5031707;28;49871;-74
2021/12/05 08:22:06;;;;;;;;;1.00;1.00;;;;;;;;5031765;28;50302;-76
2021/12/05 08:24:33;;;;;;;;;3.25;3.25;;;;;;;;5049664;28;49821;-73
2021/12/05 08:26:59;;;;;;;;;1.00;1.00;;;;;;;;5031585;28;51335;-73
2021/12/05 08:29:34;;;;;;;;;2.00;0.50;;;;;;;;5050004;28;49968;-76
2021/12/05 08:32:15;;;;;;;;;3.25;1.00;;;;;;;;5050274;28;49525;-75
2021/12/05 08:34:59;;;;;;;;;2.75;0.25;;;;;;;;5052571;28;49707;-74
2021/12/05 08:42:54;;;;;;;;;2.00;2.00;;;;;;;;5049750;28;49674;-69
2021/12/05 09:31:23;;;;;;;;;1.75;1.75;;;;;;;;5050144;28;50237;-62
2021/12/05 10:06:56;;;;;;;;;1.25;1.25;;;;;;;;5048429;28;49932;-71
2021/12/05 10:15:30;;;;;;;;;2.00;2.00;;;;;;;;5048436;28;49829;-79
2021/12/05 10:34:36;;;;;;;;;4.00;3.00;;;;;;;;5066000;28;49404;-76
2021/12/05 10:37:06;;;;;;;;;2.75;2.75;;;;;;;;5065653;28;49470;-75
2021/12/05 10:39:31;;;;;;;;;2.25;2.00;;;;;;;;5053983;28;49676;-75
2021/12/05 10:42:13;;;;;;;;;2.00;2.00;;;;;;;;5029751;28;49680;-75
2021/12/05 10:44:45;;;;;;;;;1.00;1.00;;;;;;;;5048149;28;49707;-75
2021/12/05 10:47:15;;;;;;;;;5.00;3.00;;;;;;;;5064728;28;49812;-75
2021/12/05 10:49:40;;;;;;;;;2.00;2.00;;;;;;;;5022460;27;49829;-76
2021/12/05 10:52:12;;;;;;;;;1.25;1.25;;;;;;;;5022297;27;49984;-75
2021/12/05 10:54:37;;;;;;;;;3.00;2.00;;;;;;;;5020668;27;50173;-76
2021/12/05 10:57:03;;;;;;;;;3.00;2.00;;;;;;;;5024359;28;52421;-75
2021/12/05 10:59:36;;;;;;;;;2.25;2.25;;;;;;;;5051926;28;49964;-74
2021/12/05 11:02:04;;;;;;;;;1.25;1.25;;;;;;;;5035803;28;49851;-74
2021/12/05 11:04:31;;;;;;;;;6.00;3.00;;;;;;;;5035512;28;49675;-75
2021/12/05 11:06:56;;;;;;;;;4.25;2.00;;;;;;;;5046835;28;51708;-75
2021/12/05 11:09:22;;;;;;;;;2.00;1.00;;;;;;;;5059243;27;49227;-76
2021/12/05 11:11:50;;;;;;;;;2.00;2.00;;;;;;;;5056613;27;49279;-76
2021/12/05 11:14:17;;;;;;;;;2.50;2.00;;;;;;;;5047443;27;49543;-75
2021/12/05 11:16:44;;;;;;;;;5.00;3.50;;;;;;;;5040995;27;51897;-75
2021/12/05 11:19:12;;;;;;;;;2.00;2.00;;;;;;;;5050603;28;49504;-75
2021/12/05 11:21:46;;;;;;;;;2.75;1.75;;;;;;;;5045180;28;49450;-75
2021/12/05 11:24:11;;;;;;;;;5.50;3.50;;;;;;;;5047123;28;49465;-76
2021/12/05 11:26:39;;;;;;;;;3.00;3.00;;;;;;;;5029965;28;51799;-76
2021/12/05 11:29:04;;;;;;;;;3.00;1.75;;;;;;;;5051773;27;49273;-77
2021/12/05 11:31:30;;;;;;;;;5.75;3.00;;;;;;;;5043555;27;49627;-76
2021/12/05 11:33:57;;;;;;;;;1.00;1.00;;;;;;;;5039307;28;49676;-76
2021/12/05 11:36:27;;;;;;;;;3.00;2.50;;;;;;;;5036802;28;51982;-77
2021/12/05 11:38:52;;;;;;;;;3.00;3.00;;;;;;;;5029749;28;49441;-76
2021/12/05 11:41:23;;;;;;;;;8.50;6.00;;;;;;;;5047599;28;49362;-77
2021/12/05 11:43:53;;;;;;;;;15.50;14.75;;;;;;;;5029105;28;49309;-77
2021/12/05 11:46:18;;;;;;;;;2.00;1.00;;;;;;;;5028218;28;50724;-75
2021/12/05 11:48:54;;;;;;;;;2.25;2.00;;;;;;;;5046913;27;49300;-79
2021/12/05 11:51:19;;;;;;;;;1.75;1.75;;;;;;;;5056500;27;49270;-77
2021/12/05 11:53:50;;;;;;;;;2.00;2.00;;;;;;;;5120906;27;49577;-77
2021/12/05 11:56:18;;;;;;;;;1.00;1.00;;;;;;;;5061357;27;49952;-75
2021/12/05 11:58:44;;;;;;;;;1.25;1.25;;;;;;;;5043498;27;49427;-77
2021/12/05 12:01:11;;;;;;;;;0.75;0.00;;;;;;;;5046620;28;49383;-75
2021/12/05 12:03:37;;;;;;;;;0.25;0.25;;;;;;;;5059496;27;49442;-77
2021/12/05 12:06:03;;;;;;;;;1.00;1.00;;;;;;;;5034824;28;51833;-77
2021/12/05 12:08:28;;;;;;;;;0.00;0.00;;;;;;;;5030153;28;49141;-78
2021/12/05 12:10:57;;;;;;;;;1.00;1.00;;;;;;;;5049040;28;49491;-84
2021/12/05 12:13:25;;;;;;;;;0.25;0.25;;;;;;;;5026232;28;49864;-77
2021/12/05 12:15:58;;;;;;;;;1.00;1.00;;;;;;;;5016792;28;51807;-78
2021/12/05 12:18:28;;;;;;;;;5.00;1.00;;;;;;;;5012432;28;49886;-82
2021/12/05 12:20:54;;;;;;;;;0.00;0.00;;;;;;;;5011155;28;49737;-76
2021/12/05 12:23:20;;;;;;;;;1.25;1.25;;;;;;;;5031287;28;49939;-82
2021/12/05 12:25:49;;;;;;;;;0.00;0.00;;;;;;;;5030550;28;50539;-79
2021/12/05 12:28:15;;;;;;;;;2.00;2.00;;;;;;;;5029715;28;49631;-75
2021/12/05 12:30:42;;;;;;;;;1.00;1.00;;;;;;;;5033592;28;49632;-77
2021/12/05 12:33:10;;;;;;;;;2.00;1.00;;;;;;;;5029636;28;49848;-76
2021/12/05 12:35:36;;;;;;;;;1.00;0.00;;;;;;;;5029593;28;49827;-76
2021/12/05 12:38:08;;;;;;;;;1.50;1.50;;;;;;;;5035370;28;49633;-74
2021/12/05 12:40:40;;;;;;;;;1.00;1.00;;;;;;;;5044780;28;49506;-75
2021/12/05 12:43:06;;;;;;;;;2.75;1.00;;;;;;;;5046204;28;49312;-73
2021/12/05 12:45:49;;;;;;;;;2.50;2.50;;;;;;;;5044912;28;49954;-70
2021/12/05 12:48:16;;;;;;;;;2.00;2.00;;;;;;;;5046312;28;49481;-71
2021/12/05 12:50:55;;;;;;;;;3.25;3.25;;;;;;;;5046091;28;49436;-72
2021/12/05 12:53:29;;;;;;;;;2.25;2.25;;;;;;;;5013349;28;49657;-75
2021/12/05 12:55:57;;;;;;;;;3.00;3.00;;;;;;;;5046217;28;50009;-74
2021/12/05 12:58:44;;;;;;;;;5.75;4.75;;;;;;;;5048324;28;49601;-75
2021/12/05 13:10:05;;;;;;;;;6.75;5.00;;;;;;;;5049030;27;49794;-73
2021/12/05 13:12:32;;;;;;;;;5.25;4.00;;;;;;;;5046932;28;49766;-74
2021/12/05 13:15:09;;;;;;;;;4.50;4.50;;;;;;;;5045247;27;50022;-76
2021/12/05 13:17:37;;;;;;;;;3.00;2.00;;;;;;;;5037875;28;52671;-77
2021/12/05 13:20:03;;;;;;;;;4.00;3.00;;;;;;;;5040058;27;49986;-70
2021/12/05 13:22:28;;;;;;;;;1.75;1.00;;;;;;;;5029386;28;49995;-83
2021/12/05 13:25:02;;;;;;;;;2.00;2.00;;;;;;;;5018643;28;49883;-71
2021/12/05 13:27:29;;;;;;;;;3.00;3.00;;;;;;;;5046765;28;52658;-75
2021/12/05 13:29:57;;;;;;;;;2.25;2.25;;;;;;;;5045030;28;49761;-77
2021/12/05 13:32:25;;;;;;;;;5.25;4.50;;;;;;;;5028445;28;49854;-73
2021/12/05 13:34:54;;;;;;;;;1.75;1.75;;;;;;;;5030017;28;50213;-70
2021/12/05 13:37:32;;;;;;;;;2.00;2.00;;;;;;;;5033461;27;49858;-73
2021/12/05 13:40:16;;;;;;;;;3.50;3.50;;;;;;;;5013010;28;49991;-72
2021/12/05 13:43:09;;;;;;;;;5.00;5.00;;;;;;;;5027877;28;49705;-72
2021/12/05 13:45:39;;;;;;;;;1.50;1.50;;;;;;;;5028439;28;49881;-72
2021/12/05 13:48:07;;;;;;;;;4.50;3.00;;;;;;;;5027082;28;50889;-73
2021/12/05 13:50:41;;;;;;;;;2.50;2.50;;;;;;;;5031183;28;49914;-79
2021/12/05 13:53:06;;;;;;;;;5.50;4.00;;;;;;;;5030073;28;49913;-81
2021/12/05 13:55:36;;;;;;;;;2.50;2.50;;;;;;;;5045975;28;49823;-82
2021/12/05 13:58:20;;;;;;;;;3.00;3.00;;;;;;;;5032549;27;49832;-74
2021/12/05 14:00:49;;;;;;;;;3.00;2.00;;;;;;;;5027705;28;49727;-77
2021/12/05 14:03:34;;;;;;;;;3.00;3.00;;;;;;;;5027365;28;49771;-74
2021/12/05 14:05:59;;;;;;;;;5.25;3.00;;;;;;;;5027181;28;49647;-74
2021/12/05 14:08:25;;;;;;;;;4.50;2.00;;;;;;;;5020363;28;51455;-69
2021/12/05 14:10:50;;;;;;;;;2.00;2.00;;;;;;;;5038918;27;50034;-72
2021/12/05 14:13:20;;;;;;;;;2.00;2.00;;;;;;;;5044378;28;49960;-69
2021/12/05 14:15:45;;;;;;;;;8.50;3.50;;;;;;;;5033329;27;49919;-73
2021/12/05 14:18:18;;;;;;;;;7.00;6.00;;;;;;;;5038066;28;49981;-68
2021/12/05 14:20:44;;;;;;;;;8.50;3.00;;;;;;;;5045864;28;49917;-70
2021/12/05 14:23:19;;;;;;;;;1.75;1.75;;;;;;;;5046545;28;49745;-69
2021/12/05 14:25:44;;;;;;;;;6.50;3.50;;;;;;;;5046063;28;49966;-69
2021/12/05 14:28:10;;;;;;;;;5.00;4.50;;;;;;;;5047157;28;50763;-68
2021/12/05 14:30:35;;;;;;;;;2.50;2.00;;;;;;;;5045192;27;50139;-67
2021/12/05 14:33:02;;;;;;;;;3.00;2.75;;;;;;;;5049580;28;49552;-69
2021/12/05 14:35:33;;;;;;;;;2.75;2.75;;;;;;;;5044583;27;49836;-69
2021/12/05 14:37:58;;;;;;;;;3.00;3.00;;;;;;;;5048201;28;50403;-68
2021/12/05 14:40:30;;;;;;;;;3.00;1.00;;;;;;;;5048260;28;49633;-69
2021/12/05 14:42:59;;;;;;;;;2.00;1.00;;;;;;;;5047741;28;49823;-69
2021/12/05 14:45:26;;;;;;;;;2.50;0.75;;;;;;;;5047240;28;49710;-68
2021/12/05 14:47:52;;;;;;;;;3.75;2.00;;;;;;;;5051690;28;50937;-68
2021/12/05 14:50:22;;;;;;;;;7.25;3.00;;;;;;;;5054523;28;50829;-67
2021/12/05 14:52:50;;;;;;;;;2.00;2.00;;;;;;;;5045205;27;49892;-68
2021/12/05 14:55:18;;;;;;;;;1.50;1.50;;;;;;;;5040371;28;49921;-67
2021/12/05 14:57:45;;;;;;;;;2.75;2.50;;;;;;;;5027266;28;51470;-73
2021/12/05 15:00:13;;;;;;;;;2.00;2.00;;;;;;;;5046381;28;50059;-72
2021/12/05 15:02:38;;;;;;;;;5.50;4.00;;;;;;;;5047453;28;49815;-73
2021/12/05 15:05:07;;;;;;;;;5.25;4.50;;;;;;;;5047577;28;49699;-73
2021/12/05 15:07:32;;;;;;;;;5.50;5.00;;;;;;;;5028875;28;51917;-73
2021/12/05 15:09:58;;;;;;;;;6.50;5.50;;;;;;;;5047618;28;49767;-73
2021/12/05 15:12:26;;;;;;;;;3.50;3.50;;;;;;;;5047567;28;49799;-73
2021/12/05 15:14:57;;;;;;;;;3.75;3.75;;;;;;;;5047729;28;49766;-73
2021/12/05 15:17:24;;;;;;;;;3.00;3.00;;;;;;;;5047238;28;51817;-74
2021/12/05 15:19:52;;;;;;;;;2.50;2.50;;;;;;;;5047191;28;49636;-73
2021/12/05 15:22:17;;;;;;;;;3.00;2.00;;;;;;;;5046896;28;49737;-74
2021/12/05 15:24:49;;;;;;;;;3.75;2.00;;;;;;;;5029055;28;49753;-74
2021/12/05 15:27:16;;;;;;;;;6.25;4.50;;;;;;;;5047021;28;49786;-77
2021/12/05 15:29:45;;;;;;;;;10.25;10.00;;;;;;;;5047012;28;49932;-74
2021/12/05 15:32:21;;;;;;;;;18.50;17.00;;;;;;;;5047212;28;49804;-75
2021/12/05 15:34:49;;;;;;;;;35.00;29.50;;;;;;;;5047260;28;50105;-76
2021/12/05 15:37:14;;;;;;;;;16.50;14.00;;;;;;;;5046820;28;49782;-76
2021/12/05 15:39:42;;;;;;;;;10.50;9.75;;;;;;;;5046912;28;49925;-74
2021/12/05 15:42:25;;;;;;;;;11.50;9.50;;;;;;;;5047016;28;50105;-74
2021/12/05 15:44:52;;;;;;;;;6.00;6.00;;;;;;;;5046886;28;49808;-74
2021/12/05 15:47:19;;;;;;;;;10.75;10.50;;;;;;;;5046835;28;50489;-73
2021/12/05 15:49:58;;;;;;;;;8.25;7.00;;;;;;;;5046840;28;49753;-74
2021/12/05 15:52:25;;;;;;;;;10.00;8.25;;;;;;;;5040896;27;49770;-74
2021/12/05 15:54:51;;;;;;;;;10.25;7.50;;;;;;;;5042961;28;50355;-72
2021/12/05 15:57:24;;;;;;;;;4.75;4.50;;;;;;;;5045928;28;50221;-72
2021/12/05 15:59:49;;;;;;;;;7.00;7.00;;;;;;;;5046373;28;49743;-72
2021/12/05 16:02:17;;;;;;;;;5.00;5.00;;;;;;;;5046600;28;49931;-71
2021/12/05 16:04:42;;;;;;;;;6.50;6.00;;;;;;;;5046707;28;49723;-71
2021/12/05 16:07:10;;;;;;;;;9.25;7.00;;;;;;;;5045966;28;49832;-71
2021/12/05 16:09:37;;;;;;;;;8.00;6.00;;;;;;;;5048385;28;49812;-72
2021/12/05 16:12:10;;;;;;;;;9.50;7.00;;;;;;;;5049742;28;49830;-71
2021/12/05 16:14:37;;;;;;;;;13.25;12.00;;;;;;;;5049708;28;50077;-73
2021/12/05 16:17:12;;;;;;;;;8.50;6.00;;;;;;;;5049334;28;49691;-71
2021/12/05 16:19:37;;;;;;;;;7.00;7.00;;;;;;;;5050239;28;49874;-75
2021/12/05 16:22:03;;;;;;;;;9.25;7.50;;;;;;;;5049251;28;49777;-76
2021/12/05 16:24:28;;;;;;;;;10.00;7.00;;;;;;;;5049463;28;49617;-71
2021/12/05 16:26:53;;;;;;;;;4.50;2.00;;;;;;;;5050615;28;51043;-72
2021/12/05 16:29:20;;;;;;;;;8.25;6.50;;;;;;;;5049475;28;49698;-72
2021/12/05 16:31:47;;;;;;;;;7.75;7.75;;;;;;;;5049403;28;49805;-73
2021/12/05 16:34:14;;;;;;;;;11.50;10.25;;;;;;;;5049685;28;49818;-72
2021/12/05 16:36:46;;;;;;;;;8.00;7.00;;;;;;;;5032889;27;52277;-74
2021/12/05 16:39:14;;;;;;;;;8.25;8.00;;;;;;;;5049968;28;50059;-73
2021/12/05 16:41:46;;;;;;;;;9.25;7.75;;;;;;;;5031268;28;49817;-78
2021/12/05 16:44:13;;;;;;;;;7.00;7.00;;;;;;;;5048969;28;49969;-79
2021/12/05 16:46:43;;;;;;;;;8.25;7.00;;;;;;;;5049078;28;49929;-77
2021/12/05 16:49:11;;;;;;;;;8.75;8.75;;;;;;;;5050268;27;49578;-76
2021/12/05 16:51:42;;;;;;;;;6.25;6.25;;;;;;;;5030930;27;49816;-73
2021/12/05 16:54:13;;;;;;;;;6.00;6.00;;;;;;;;5049307;27;49746;-77
2021/12/05 16:56:49;;;;;;;;;7.75;7.25;;;;;;;;5031748;27;52199;-77
2021/12/05 16:59:20;;;;;;;;;11.50;8.75;;;;;;;;5049425;27;49731;-71
2021/12/05 17:01:46;;;;;;;;;6.50;5.00;;;;;;;;5050478;27;49788;-75
2021/12/05 17:04:12;;;;;;;;;4.50;4.50;;;;;;;;5049226;28;49718;-73
2021/12/05 17:06:53;;;;;;;;;7.75;5.25;;;;;;;;5048684;28;49715;-70
2021/12/05 17:09:19;;;;;;;;;5.75;5.75;;;;;;;;5048924;28;49908;-70
2021/12/05 17:11:45;;;;;;;;;10.25;9.25;;;;;;;;5030916;27;49724;-66
2021/12/05 17:14:23;;;;;;;;;6.50;6.50;;;;;;;;5049153;28;50180;-68
2021/12/05 17:16:49;;;;;;;;;7.50;7.50;;;;;;;;5048915;28;50515;-69
2021/12/05 17:19:16;;;;;;;;;11.00;10.00;;;;;;;;5048713;28;49835;-67
2021/12/05 17:21:47;;;;;;;;;8.50;8.00;;;;;;;;5047804;27;49714;-67
2021/12/05 17:24:18;;;;;;;;;8.25;7.75;;;;;;;;5049012;27;49788;-67
2021/12/05 17:26:46;;;;;;;;;11.50;6.75;;;;;;;;5048408;28;51622;-68
2021/12/05 17:29:22;;;;;;;;;7.25;6.25;;;;;;;;5048710;27;49698;-64
2021/12/05 17:32:07;;;;;;;;;7.00;7.00;;;;;;;;5048797;28;49670;-64
2021/12/05 17:34:35;;;;;;;;;8.25;7.00;;;;;;;;5049249;28;49682;-66
2021/12/05 17:37:01;;;;;;;;;9.50;7.25;;;;;;;;5047996;28;51625;-65
2021/12/05 17:39:29;;;;;;;;;13.75;13.75;;;;;;;;5052340;27;49683;-64
2021/12/05 17:41:56;;;;;;;;;7.75;7.75;;;;;;;;5055622;27;49703;-65
2021/12/05 17:44:22;;;;;;;;;10.50;9.25;;;;;;;;5051599;28;49605;-75
2021/12/05 17:46:49;;;;;;;;;19.50;14.00;;;;;;;;5048350;28;50550;-72
2021/12/05 17:49:15;;;;;;;;;9.25;9.25;;;;;;;;5048653;28;49749;-69
2021/12/05 17:51:41;;;;;;;;;10.00;10.00;;;;;;;;5039895;27;49869;-69
2021/12/05 17:54:08;;;;;;;;;12.25;12.25;;;;;;;;5017669;28;49867;-73
2021/12/05 17:56:39;;;;;;;;;16.00;13.75;;;;;;;;5028503;28;50157;-72
2021/12/05 17:59:46;;;;;;;;;21.00;15.50;;;;;;;;5028759;28;50045;-66
2021/12/05 18:04:55;;;;;;;;;11.00;9.75;;;;;;;;5028405;28;49695;-66
2021/12/05 18:07:21;;;;;;;;;11.00;11.00;;;;;;;;5037308;27;49670;-66
2021/12/05 18:09:46;;;;;;;;;14.50;14.50;;;;;;;;5098909;27;49958;-66
2021/12/05 18:12:19;;;;;;;;;14.75;14.75;;;;;;;;5039401;27;49700;-70
2021/12/05 18:14:44;;;;;;;;;10.75;10.75;;;;;;;;5018959;28;49915;-69
2021/12/05 18:17:10;;;;;;;;;14.25;10.75;;;;;;;;5038872;27;50799;-65
2021/12/05 18:19:36;;;;;;;;;12.75;11.25;;;;;;;;5013945;28;49910;-67
2021/12/05 18:22:01;;;;;;;;;9.75;9.00;;;;;;;;5025840;28;49609;-66
2021/12/05 18:24:26;;;;;;;;;11.25;11.25;;;;;;;;5026377;28;49700;-64
2021/12/05 18:26:52;;;;;;;;;15.25;13.50;;;;;;;;5032934;27;49909;-67
2021/12/05 18:29:18;;;;;;;;;10.75;10.00;;;;;;;;5016194;28;49785;-65
2021/12/05 18:31:45;;;;;;;;;13.25;12.75;;;;;;;;5030806;27;50081;-64
2021/12/05 18:34:15;;;;;;;;;8.00;7.25;;;;;;;;5037717;28;49882;-68
2021/12/05 18:36:42;;;;;;;;;11.00;11.00;;;;;;;;5027430;28;49870;-65
2021/12/05 18:39:10;;;;;;;;;14.50;11.50;;;;;;;;5009658;28;50065;-66
2021/12/05 18:41:37;;;;;;;;;10.25;10.25;;;;;;;;5027410;28;49827;-66
2021/12/05 18:44:05;;;;;;;;;15.50;15.50;;;;;;;;5027765;28;50081;-66
2021/12/05 18:46:31;;;;;;;;;17.75;14.50;;;;;;;;5027138;28;50346;-66
2021/12/05 18:48:56;;;;;;;;;13.00;12.00;;;;;;;;5027704;28;49770;-65
2021/12/05 18:51:21;;;;;;;;;16.75;16.75;;;;;;;;5027324;28;50029;-66
2021/12/05 18:53:48;;;;;;;;;15.50;15.00;;;;;;;;5027554;28;49747;-65
2021/12/05 18:56:13;;;;;;;;;15.50;15.50;;;;;;;;5009159;28;52362;-65
2021/12/05 18:58:42;;;;;;;;;17.25;15.00;;;;;;;;5027301;28;49676;-65
2021/12/05 19:06:38;;;;;;;;;22.75;18.50;;;;;;;;5031286;27;50261;-65
2021/12/05 19:14:30;;;;;;;;;20.75;16.75;;;;;;;;5031627;28;49711;-65
2021/12/05 19:16:58;;;;;;;;;14.50;14.00;;;;;;;;5015567;28;52133;-65
2021/12/05 19:19:24;;;;;;;;;19.25;16.75;;;;;;;;5026925;28;50020;-64
2021/12/05 19:21:49;;;;;;;;;9.75;8.75;;;;;;;;5026900;28;49903;-66
2021/12/05 19:24:16;;;;;;;;;14.25;14.25;;;;;;;;5027074;28;49667;-65
2021/12/05 19:26:42;;;;;;;;;16.25;15.25;;;;;;;;5011732;28;51897;-66
2021/12/05 19:29:07;;;;;;;;;17.75;15.00;;;;;;;;5027253;28;49916;-68
2021/12/05 19:31:32;;;;;;;;;15.50;14.50;;;;;;;;5026959;28;49964;-65
2021/12/05 19:33:58;;;;;;;;;10.50;10.25;;;;;;;;5027255;28;49704;-67
2021/12/05 19:36:27;;;;;;;;;9.75;8.00;;;;;;;;5026581;28;49705;-63
2021/12/05 19:38:54;;;;;;;;;12.00;11.00;;;;;;;;5026797;28;49991;-68
2021/12/05 19:41:19;;;;;;;;;10.00;6.75;;;;;;;;5008863;28;49726;-66
2021/12/05 19:43:45;;;;;;;;;6.50;6.25;;;;;;;;5028273;28;49697;-69
2021/12/05 19:46:12;;;;;;;;;2.00;2.00;;;;;;;;5030020;28;49839;-69
2021/12/05 19:48:38;;;;;;;;;5.50;5.25;;;;;;;;5030121;28;49677;-71
2021/12/05 19:51:07;;;;;;;;;5.25;5.25;;;;;;;;5011967;28;49769;-69
2021/12/05 19:53:33;;;;;;;;;7.00;7.00;;;;;;;;5030105;28;49663;-69
2021/12/05 19:55:58;;;;;;;;;5.50;5.50;;;;;;;;5029680;28;50647;-62
2021/12/05 19:58:23;;;;;;;;;5.00;5.00;;;;;;;;5029973;28;49785;-69
2021/12/05 20:00:49;;;;;;;;;5.75;5.50;;;;;;;;5029876;28;49730;-64
2021/12/05 20:03:14;;;;;;;;;5.00;5.00;;;;;;;;5030186;28;49626;-68
2021/12/05 20:05:40;;;;;;;;;7.75;7.25;;;;;;;;5029510;28;49672;-65
2021/12/05 20:08:07;;;;;;;;;6.75;5.75;;;;;;;;5030024;28;49605;-68
2021/12/05 20:10:33;;;;;;;;;10.00;6.75;;;;;;;;5029684;28;49738;-63
2021/12/05 20:13:01;;;;;;;;;6.50;6.00;;;;;;;;5011815;28;49887;-63
2021/12/05 20:15:27;;;;;;;;;6.50;5.75;;;;;;;;5043030;27;50329;-63